createdAt,value
2023-02-28T00:00:34.633Z,6.38
2023-02-28T00:03:01.099Z,6.05
2023-02-28T00:05:28.726Z,6.00
2023-02-28T00:07:55.575Z,6.05
2023-02-28T00:10:25.507Z,6.68
2023-02-28T00:12:53.417Z,8.75
2023-02-28T00:15:19.949Z,8.20
2023-02-28T00:17:46.969Z,7.35
2023-02-28T00:20:14.784Z,6.90
2023-02-28T00:22:44.471Z,7.18
2023-02-28T00:25:12.689Z,8.05
2023-02-28T00:27:40.322Z,7.70
2023-02-28T00:30:08.560Z,7.93
2023-02-28T00:32:35.050Z,8.60
2023-02-28T00:35:01.814Z,8.65
2023-02-28T00:37:28.152Z,7.88
2023-02-28T00:39:54.469Z,8.75
2023-02-28T00:42:20.784Z,8.50
2023-02-28T00:44:47.083Z,8.13
2023-02-28T00:47:13.400Z,9.35
2023-02-28T00:49:39.879Z,8.60
2023-02-28T00:52:06.187Z,8.35
2023-02-28T00:54:32.532Z,9.20
2023-02-28T00:57:00.296Z,9.25
2023-02-28T00:59:26.599Z,8.15
2023-02-28T01:01:53.273Z,8.55
2023-02-28T01:04:19.738Z,8.60
2023-02-28T01:06:46.188Z,9.75
2023-02-28T01:09:13.020Z,9.30
2023-02-28T01:11:39.448Z,9.60
2023-02-28T01:14:05.816Z,9.32
2023-02-28T01:16:32.276Z,9.23
2023-02-28T01:18:59.019Z,9.35
2023-02-28T01:21:25.596Z,9.18
2023-02-28T01:23:52.347Z,7.57
2023-02-28T01:26:23.357Z,7.88
2023-02-28T01:28:51.671Z,8.43
2023-02-28T01:31:18.514Z,7.90
2023-02-28T01:33:45.275Z,7.90
2023-02-28T01:36:14.758Z,9.10
2023-02-28T01:38:41.443Z,8.93
2023-02-28T01:41:09.017Z,8.50
2023-02-28T01:43:44.224Z,8.52
2023-02-28T01:46:11.545Z,8.65
2023-02-28T01:48:43.600Z,9.20
2023-02-28T01:51:14.051Z,8.27
2023-02-28T01:53:46.873Z,8.45
2023-02-28T01:56:19.427Z,7.90
2023-02-28T01:58:45.725Z,9.30
2023-02-28T02:01:12.094Z,8.75
2023-02-28T02:03:38.470Z,8.50
2023-02-28T02:06:05.017Z,8.85
2023-02-28T02:08:31.336Z,8.80
2023-02-28T02:11:02.467Z,8.60
2023-02-28T02:13:43.959Z,8.40
2023-02-28T02:16:34.928Z,8.93
2023-02-28T02:19:19.388Z,8.13
2023-02-28T02:22:21.597Z,8.85
2023-02-28T02:25:05.972Z,8.43
2023-02-28T02:28:02.829Z,8.35
2023-02-28T02:31:03.142Z,8.68
2023-02-28T02:34:00.176Z,8.27
2023-02-28T02:36:32.773Z,8.77
2023-02-28T02:39:15.207Z,7.93
2023-02-28T02:41:52.502Z,7.72
2023-02-28T02:44:27.799Z,8.35
2023-02-28T02:47:02.019Z,8.60
2023-02-28T02:49:33.216Z,8.57
2023-02-28T02:52:05.457Z,9.07
2023-02-28T02:54:36.769Z,8.75
2023-02-28T02:57:11.905Z,9.40
2023-02-28T02:59:40.711Z,7.80
2023-02-28T03:02:11.954Z,8.13
2023-02-28T03:04:46.293Z,7.38
2023-02-28T03:07:12.613Z,8.30
2023-02-28T03:09:38.949Z,7.03
2023-02-28T03:12:10.451Z,8.02
2023-02-28T03:15:13.069Z,8.43
2023-02-28T03:18:01.795Z,8.02
2023-02-28T03:20:39.407Z,7.88
2023-02-28T03:23:14.148Z,8.13
2023-02-28T03:28:35.362Z,6.78
2023-02-28T03:31:13.168Z,7.18
2023-02-28T03:33:52.325Z,7.30
2023-02-28T03:36:21.057Z,8.13
2023-02-28T03:38:59.330Z,7.35
2023-02-28T03:41:44.134Z,7.80
2023-02-28T03:44:16.568Z,7.43
2023-02-28T03:47:03.692Z,7.90
2023-02-28T03:49:36.090Z,7.40
2023-02-28T03:52:04.937Z,7.85
2023-02-28T03:54:35.805Z,8.13
2023-02-28T03:57:31.792Z,7.80
2023-02-28T04:00:03.078Z,7.20
2023-02-28T04:02:29.385Z,7.32
2023-02-28T04:04:55.760Z,8.10
2023-02-28T04:07:22.107Z,8.07
2023-02-28T04:09:48.453Z,7.70
2023-02-28T04:12:14.752Z,7.57
2023-02-28T04:14:41.053Z,7.68
2023-02-28T04:17:07.418Z,7.32
2023-02-28T04:19:33.713Z,7.32
2023-02-28T04:22:00.021Z,7.30
2023-02-28T04:24:28.675Z,7.57
2023-02-28T04:26:57.198Z,7.85
2023-02-28T04:29:28.809Z,8.65
2023-02-28T04:31:56.461Z,7.80
2023-02-28T04:34:22.892Z,8.27
2023-02-28T04:36:54.535Z,7.20
2023-02-28T04:39:28.960Z,7.88
2023-02-28T04:41:55.268Z,7.90
2023-02-28T04:44:22.249Z,7.60
2023-02-28T04:46:49.591Z,7.25
2023-02-28T04:49:16.128Z,8.15
2023-02-28T04:51:43.012Z,7.45
2023-02-28T04:54:09.313Z,7.82
2023-02-28T04:56:35.706Z,8.55
2023-02-28T04:59:02.032Z,8.20
2023-02-28T05:01:33.561Z,8.82
2023-02-28T05:04:01.499Z,8.55
2023-02-28T05:06:29.709Z,8.77
2023-02-28T05:08:56.385Z,8.40
2023-02-28T05:11:28.717Z,8.95
2023-02-28T05:13:55.983Z,8.95
2023-02-28T05:16:22.416Z,8.52
2023-02-28T05:18:48.822Z,8.25
2023-02-28T05:21:31.140Z,9.75
2023-02-28T05:24:00.516Z,8.68
2023-02-28T05:26:27.552Z,8.60
2023-02-28T05:28:54.609Z,9.27
2023-02-28T05:31:20.929Z,9.15
2023-02-28T05:33:47.495Z,10.20
2023-02-28T05:36:14.056Z,9.23
2023-02-28T05:38:40.534Z,9.63
2023-02-28T05:41:10.987Z,10.75
2023-02-28T05:43:38.188Z,10.05
2023-02-28T05:46:06.368Z,10.90
2023-02-28T05:48:34.271Z,10.93
2023-02-28T05:51:00.739Z,10.02
2023-02-28T05:53:27.477Z,10.02
2023-02-28T05:55:53.969Z,10.55
2023-02-28T05:58:20.285Z,10.70
2023-02-28T06:00:46.617Z,10.57
2023-02-28T06:03:12.963Z,11.13
2023-02-28T06:05:39.283Z,10.85
2023-02-28T06:08:06.118Z,11.02
2023-02-28T06:10:32.434Z,11.20
2023-02-28T06:13:01.549Z,11.48
2023-02-28T06:15:27.849Z,11.93
2023-02-28T06:17:54.185Z,11.50
2023-02-28T06:20:20.526Z,10.98
2023-02-28T06:22:46.906Z,12.15
2023-02-28T06:25:13.274Z,11.15
2023-02-28T06:27:39.768Z,10.35
2023-02-28T06:30:06.699Z,12.40
2023-02-28T06:32:33.023Z,11.52
2023-02-28T06:34:59.426Z,10.95
2023-02-28T06:37:25.874Z,11.63
2023-02-28T06:39:52.303Z,12.15
2023-02-28T06:42:18.642Z,12.38
2023-02-28T06:44:44.977Z,11.45
2023-02-28T06:47:11.330Z,12.63
2023-02-28T06:49:37.709Z,12.38
2023-02-28T06:52:04.345Z,12.50
2023-02-28T06:54:30.740Z,11.95
2023-02-28T06:56:58.635Z,12.00
2023-02-28T06:59:25.096Z,10.60
2023-02-28T07:01:51.522Z,10.25
2023-02-28T07:04:17.869Z,10.23
2023-02-28T07:06:44.255Z,10.77
2023-02-28T07:09:10.589Z,9.15
2023-02-28T07:11:36.941Z,10.40
2023-02-28T07:14:03.365Z,9.23
2023-02-28T07:16:29.781Z,8.85
2023-02-28T07:18:56.504Z,9.95
2023-02-28T07:21:23.181Z,9.23
2023-02-28T07:23:49.824Z,9.68
2023-02-28T07:26:18.487Z,9.43
2023-02-28T07:28:46.458Z,9.00
2023-02-28T07:31:13.860Z,10.20
2023-02-28T07:33:40.961Z,9.48
2023-02-28T07:36:13.951Z,10.07
2023-02-28T07:38:40.424Z,10.30
2023-02-28T07:41:06.834Z,10.95
2023-02-28T07:43:33.839Z,10.85
2023-02-28T07:46:09.167Z,12.05
2023-02-28T07:48:35.541Z,11.88
2023-02-28T07:51:02.166Z,12.40
2023-02-28T07:53:29.330Z,13.07
2023-02-28T07:56:00.352Z,10.65
2023-02-28T07:58:27.773Z,10.23
2023-02-28T08:00:54.598Z,9.85
2023-02-28T08:03:22.733Z,9.13
2023-02-28T08:05:49.730Z,10.27
2023-02-28T08:08:17.130Z,10.05
2023-02-28T08:10:44.046Z,9.05
2023-02-28T08:13:10.803Z,9.35
2023-02-28T08:15:37.174Z,9.77
2023-02-28T08:18:03.673Z,8.93
2023-02-28T08:20:30.093Z,9.23
2023-02-28T08:22:56.426Z,9.68
2023-02-28T08:25:22.775Z,9.40
2023-02-28T08:27:52.164Z,10.57
2023-02-28T08:30:18.604Z,9.18
2023-02-28T08:32:45.126Z,9.45
2023-02-28T08:35:11.646Z,8.57
2023-02-28T08:37:38.147Z,9.15
2023-02-28T08:40:05.125Z,8.48
2023-02-28T08:42:33.308Z,8.93
2023-02-28T08:44:59.650Z,8.75
2023-02-28T08:47:26.104Z,8.55
2023-02-28T08:49:52.470Z,8.40
2023-02-28T08:52:18.851Z,8.82
2023-02-28T08:54:45.198Z,10.20
2023-02-28T08:57:11.512Z,9.63
2023-02-28T08:59:37.912Z,7.90
2023-02-28T09:02:04.274Z,7.43
2023-02-28T09:04:30.642Z,6.15
2023-02-28T09:06:57.044Z,5.38
2023-02-28T09:09:23.368Z,4.95
2023-02-28T09:11:49.747Z,5.93
2023-02-28T09:14:16.165Z,6.60
2023-02-28T09:16:42.592Z,4.25
2023-02-28T09:19:12.096Z,4.97
2023-02-28T09:21:42.213Z,6.43
2023-02-28T09:24:09.127Z,6.20
2023-02-28T09:26:42.954Z,8.40
2023-02-28T09:29:13.880Z,5.43
2023-02-28T09:31:40.226Z,5.10
2023-02-28T09:34:06.634Z,3.22
2023-02-28T09:36:43.668Z,2.85
2023-02-28T09:39:11.243Z,3.05
2023-02-28T09:41:41.150Z,2.53
2023-02-28T09:44:14.800Z,1.95
2023-02-28T09:46:45.715Z,1.75
2023-02-28T09:49:20.457Z,1.50
2023-02-28T09:51:59.539Z,1.60
2023-02-28T09:54:30.219Z,1.60
2023-02-28T09:56:59.572Z,1.92
2023-02-28T09:59:48.283Z,1.60
2023-02-28T10:02:21.931Z,1.40
2023-02-28T10:05:10.677Z,1.38
2023-02-28T10:07:47.168Z,1.67
2023-02-28T10:10:30.554Z,1.58
2023-02-28T10:13:01.665Z,1.58
2023-02-28T10:15:32.473Z,1.45
2023-02-28T10:18:09.333Z,1.50
2023-02-28T10:20:40.935Z,1.30
2023-02-28T10:23:20.717Z,1.55
2023-02-28T10:25:55.033Z,1.50
2023-02-28T10:28:21.435Z,1.38
2023-02-28T10:30:50.823Z,1.52
2023-02-28T10:33:26.798Z,1.80
2023-02-28T10:35:53.395Z,1.50
2023-02-28T10:38:23.832Z,1.90
2023-02-28T10:40:50.306Z,1.40
2023-02-28T10:43:16.610Z,1.67
2023-02-28T10:45:58.222Z,2.10
2023-02-28T10:48:34.966Z,1.90
2023-02-28T10:51:02.490Z,2.20
2023-02-28T10:54:01.421Z,1.83
2023-02-28T10:56:29.240Z,1.60
2023-02-28T10:58:58.873Z,1.55
2023-02-28T11:01:31.239Z,1.65
2023-02-28T11:03:57.930Z,1.35
2023-02-28T11:06:30.833Z,1.65
2023-02-28T11:09:00.397Z,1.77
2023-02-28T11:11:30.006Z,1.70
2023-02-28T11:14:03.895Z,1.73
2023-02-28T11:16:38.899Z,1.75
2023-02-28T11:19:16.914Z,1.65
2023-02-28T11:21:52.863Z,1.67
2023-02-28T11:24:25.574Z,1.90
2023-02-28T11:26:52.096Z,1.70
2023-02-28T11:29:25.969Z,1.60
2023-02-28T11:32:17.709Z,2.00
2023-02-28T11:34:45.437Z,1.52
2023-02-28T11:37:18.888Z,1.60
2023-02-28T11:39:46.297Z,2.42
2023-02-28T11:42:31.928Z,1.75
2023-02-28T11:45:36.884Z,2.17
2023-02-28T11:48:22.348Z,1.88
2023-02-28T11:51:12.640Z,1.80
2023-02-28T11:54:21.972Z,2.17
2023-02-28T11:56:55.022Z,2.90
2023-02-28T11:59:36.838Z,2.17
2023-02-28T12:02:25.580Z,1.90
2023-02-28T12:04:57.834Z,2.42
2023-02-28T12:07:39.337Z,1.73
2023-02-28T12:10:24.878Z,1.83
2023-02-28T12:13:21.839Z,3.50
2023-02-28T12:16:19.471Z,2.38
2023-02-28T12:18:58.124Z,1.73
2023-02-28T12:21:52.216Z,2.08
2023-02-28T12:24:37.240Z,1.88
2023-02-28T12:27:08.497Z,1.58
2023-02-28T12:29:55.061Z,1.70
2023-02-28T12:32:37.978Z,1.88
2023-02-28T12:35:15.546Z,1.50
2023-02-28T12:37:45.701Z,2.20
2023-02-28T12:40:23.993Z,1.80
2023-02-28T12:42:53.589Z,1.85
2023-02-28T12:45:23.093Z,1.92
2023-02-28T12:47:55.796Z,1.63
2023-02-28T12:50:23.872Z,2.00
2023-02-28T12:53:11.998Z,1.90
2023-02-28T12:55:49.651Z,2.00
2023-02-28T12:58:28.564Z,1.83
2023-02-28T13:01:26.759Z,2.15
2023-02-28T13:04:20.041Z,2.00
2023-02-28T13:07:20.081Z,2.17
2023-02-28T13:10:00.006Z,2.10
2023-02-28T13:12:26.909Z,2.08
2023-02-28T13:15:09.480Z,2.17
2023-02-28T13:17:35.971Z,2.05
2023-02-28T13:20:02.398Z,2.22
2023-02-28T13:22:42.443Z,1.80
2023-02-28T13:25:23.667Z,2.13
2023-02-28T13:27:52.532Z,6.82
2023-02-28T13:30:52.954Z,2.72
2023-02-28T13:33:32.605Z,2.28
2023-02-28T13:36:30.784Z,2.05
2023-02-28T13:39:02.243Z,2.05
2023-02-28T13:41:31.738Z,2.08
2023-02-28T13:44:08.970Z,2.38
2023-02-28T13:46:39.728Z,2.10
2023-02-28T13:49:24.101Z,2.08
2023-02-28T13:52:13.437Z,2.28
2023-02-28T13:54:57.752Z,2.22
2023-02-28T13:57:54.624Z,2.20
2023-02-28T14:01:06.064Z,2.15
2023-02-28T14:03:44.364Z,2.70
2023-02-28T14:06:10.666Z,2.20
2023-02-28T14:08:37.577Z,2.13
2023-02-28T14:11:07.445Z,2.20
2023-02-28T14:13:41.740Z,2.40
2023-02-28T14:16:09.860Z,2.20
2023-02-28T14:18:43.389Z,2.42
2023-02-28T14:21:17.400Z,2.40
2023-02-28T14:24:08.079Z,2.25
2023-02-28T14:26:57.218Z,2.08
2023-02-28T14:29:51.465Z,2.10
2023-02-28T14:32:28.620Z,2.10
2023-02-28T14:35:03.730Z,1.85
2023-02-28T14:37:33.958Z,2.72
2023-02-28T14:40:02.216Z,2.80
2023-02-28T14:42:34.267Z,2.08
2023-02-28T14:45:01.447Z,2.65
2023-02-28T14:47:36.194Z,2.33
2023-02-28T14:50:04.788Z,2.40
2023-02-28T14:52:33.083Z,1.90
2023-02-28T14:55:05.078Z,1.95
2023-02-28T14:57:34.281Z,2.17
2023-02-28T15:00:17.931Z,2.22
2023-02-28T15:02:44.538Z,2.10
2023-02-28T15:05:10.818Z,2.67
2023-02-28T15:07:37.738Z,2.33
2023-02-28T15:10:24.919Z,2.30
2023-02-28T15:13:18.060Z,2.63
2023-02-28T15:16:04.696Z,2.67
2023-02-28T15:18:51.964Z,2.95
2023-02-28T15:21:22.532Z,2.42
2023-02-28T15:23:59.618Z,3.05
2023-02-28T15:26:31.312Z,2.53
2023-02-28T15:29:05.814Z,2.30
2023-02-28T15:31:56.099Z,2.35
2023-02-28T15:34:42.306Z,2.60
2023-02-28T15:37:39.111Z,2.53
2023-02-28T15:40:13.147Z,2.45
2023-02-28T15:42:39.681Z,2.65
2023-02-28T15:45:06.501Z,2.53
2023-02-28T15:47:33.839Z,2.97
2023-02-28T15:50:03.932Z,2.50
2023-02-28T15:52:34.470Z,3.50
2023-02-28T15:55:10.961Z,2.65
2023-02-28T15:57:37.336Z,2.75
2023-02-28T16:00:04.932Z,3.58
2023-02-28T16:02:36.441Z,2.95
2023-02-28T16:05:20.338Z,3.17
2023-02-28T16:07:46.641Z,3.40
2023-02-28T16:10:13.640Z,2.58
2023-02-28T16:12:40.795Z,2.92
2023-02-28T16:15:19.662Z,3.17
2023-02-28T16:17:46.064Z,2.90
2023-02-28T16:20:16.825Z,2.70
2023-02-28T16:22:43.740Z,3.83
2023-02-28T16:25:18.609Z,3.05
2023-02-28T16:30:23.972Z,2.60
2023-02-28T16:32:51.992Z,2.47
2023-02-28T16:35:20.162Z,2.50
2023-02-28T16:37:46.506Z,2.60
2023-02-28T16:40:21.584Z,2.90
2023-02-28T16:42:50.050Z,2.97
2023-02-28T16:45:25.870Z,2.55
2023-02-28T16:47:53.001Z,3.47
2023-02-28T16:50:28.176Z,2.72
2023-02-28T16:52:54.883Z,2.92
2023-02-28T16:55:22.705Z,3.30
2023-02-28T16:57:54.256Z,3.10
2023-02-28T17:00:20.838Z,3.35
2023-02-28T17:02:47.475Z,3.35
2023-02-28T17:05:14.757Z,3.40
2023-02-28T17:07:42.352Z,3.03
2023-02-28T17:10:13.883Z,3.20
2023-02-28T17:12:40.190Z,3.58
2023-02-28T17:15:09.970Z,3.35
2023-02-28T17:17:36.521Z,3.33
2023-02-28T17:20:04.515Z,3.65
2023-02-28T17:22:30.866Z,4.72
2023-02-28T17:24:57.218Z,5.38
2023-02-28T17:27:23.561Z,4.00
2023-02-28T17:29:49.891Z,3.92
2023-02-28T17:32:18.415Z,4.43
2023-02-28T17:34:45.485Z,5.53
2023-02-28T17:37:11.782Z,5.13
2023-02-28T17:39:38.100Z,5.22
2023-02-28T17:42:04.470Z,3.95
2023-02-28T17:44:30.833Z,4.32
2023-02-28T17:46:57.165Z,6.45
2023-02-28T17:49:23.591Z,5.03
2023-02-28T17:51:50.035Z,5.47
2023-02-28T17:54:18.154Z,8.85
2023-02-28T17:56:45.198Z,10.32
2023-02-28T17:59:13.043Z,21.15
2023-02-28T18:01:40.090Z,16.50
2023-02-28T18:04:06.481Z,10.18
2023-02-28T18:06:39.318Z,9.13
2023-02-28T18:09:05.665Z,8.13
2023-02-28T18:11:32.274Z,11.00
2023-02-28T18:13:58.734Z,8.55
2023-02-28T18:16:25.113Z,9.57
2023-02-28T18:18:51.458Z,7.25
2023-02-28T18:21:17.818Z,5.97
2023-02-28T18:23:44.953Z,7.45
2023-02-28T18:26:11.319Z,5.53
2023-02-28T18:28:37.649Z,5.40
2023-02-28T18:31:08.297Z,5.30
2023-02-28T18:33:35.110Z,5.68
2023-02-28T18:36:01.961Z,6.40
2023-02-28T18:38:28.364Z,8.32
2023-02-28T18:41:00.700Z,12.82
2023-02-28T18:43:31.661Z,14.65
2023-02-28T18:45:58.337Z,24.45
2023-02-28T18:48:24.824Z,16.00
2023-02-28T18:50:52.086Z,16.05
2023-02-28T18:53:19.065Z,21.33
2023-02-28T18:55:45.576Z,16.50
2023-02-28T18:58:11.984Z,8.88
2023-02-28T19:00:38.492Z,9.27
2023-02-28T19:03:04.897Z,7.95
2023-02-28T19:05:31.332Z,5.75
2023-02-28T19:07:57.698Z,6.05
2023-02-28T19:10:24.244Z,6.30
2023-02-28T19:12:50.950Z,6.10
2023-02-28T19:15:17.379Z,5.75
2023-02-28T19:17:43.744Z,5.53
2023-02-28T19:20:10.799Z,5.80
2023-02-28T19:22:37.275Z,7.95
2023-02-28T19:25:05.602Z,7.30
2023-02-28T19:27:32.203Z,7.13
2023-02-28T19:29:58.571Z,7.40
2023-02-28T19:32:26.514Z,5.53
2023-02-28T19:34:52.972Z,7.05
2023-02-28T19:37:19.296Z,6.28
2023-02-28T19:39:46.383Z,6.13
2023-02-28T19:42:16.007Z,6.10
2023-02-28T19:44:42.969Z,6.45
2023-02-28T19:47:09.748Z,6.13
2023-02-28T19:49:36.423Z,6.10
2023-02-28T19:52:03.490Z,5.43
2023-02-28T19:54:30.191Z,8.38
2023-02-28T19:56:56.550Z,33.55
2023-02-28T19:59:35.849Z,10.82
2023-02-28T20:02:06.257Z,12.38
2023-02-28T20:04:32.650Z,12.70
2023-02-28T20:06:58.992Z,11.38
2023-02-28T20:09:25.377Z,10.07
2023-02-28T20:11:52.063Z,17.63
2023-02-28T20:14:18.527Z,11.13
2023-02-28T20:16:45.405Z,14.82
2023-02-28T20:19:11.975Z,11.43
2023-02-28T20:21:38.346Z,11.80
2023-02-28T20:24:05.046Z,15.27
2023-02-28T20:26:31.672Z,15.52
2023-02-28T20:28:58.141Z,12.80
2023-02-28T20:31:25.609Z,12.68
2023-02-28T20:33:52.238Z,11.48
2023-02-28T20:36:19.540Z,11.73
2023-02-28T20:38:46.108Z,12.38
2023-02-28T20:41:13.766Z,10.57
2023-02-28T20:43:41.028Z,12.13
2023-02-28T20:46:07.875Z,27.92
2023-02-28T20:48:34.674Z,29.70
2023-02-28T20:51:01.201Z,20.55
2023-02-28T20:53:28.580Z,18.05
2023-02-28T20:55:58.582Z,15.05
2023-02-28T20:58:27.261Z,13.75
2023-02-28T21:01:21.149Z,17.40
2023-02-28T21:03:49.844Z,20.83
2023-02-28T21:06:19.223Z,17.25
2023-02-28T21:08:45.705Z,12.80
2023-02-28T21:11:14.972Z,12.25
2023-02-28T21:13:43.078Z,12.32
2023-02-28T21:16:15.409Z,11.85
2023-02-28T21:18:42.086Z,11.05
2023-02-28T21:21:14.683Z,10.65
2023-02-28T21:23:41.834Z,13.98
2023-02-28T21:26:10.905Z,22.65
2023-02-28T21:28:38.194Z,32.22
2023-02-28T21:31:07.926Z,23.50
2023-02-28T21:33:35.501Z,16.95
2023-02-28T21:36:07.493Z,17.48
2023-02-28T21:38:35.275Z,19.48
2023-02-28T21:41:09.957Z,17.80
2023-02-28T21:43:37.024Z,16.65
2023-02-28T21:46:05.286Z,16.05
2023-02-28T21:48:32.570Z,11.30
2023-02-28T21:51:04.920Z,10.35
2023-02-28T21:53:32.845Z,11.65
2023-02-28T21:58:43.424Z,10.45
2023-02-28T22:01:18.041Z,11.82
2023-02-28T22:03:45.766Z,15.65
2023-02-28T22:06:15.067Z,13.63
2023-02-28T22:08:42.968Z,20.23
2023-02-28T22:11:10.378Z,16.95
2023-02-28T22:13:38.245Z,21.02
2023-02-28T22:16:06.797Z,18.88
2023-02-28T22:18:37.358Z,15.88
2023-02-28T22:21:05.163Z,16.23
2023-02-28T22:23:32.419Z,11.13
2023-02-28T22:26:03.733Z,10.10
2023-02-28T22:28:30.235Z,9.77
2023-02-28T22:30:58.505Z,10.10
2023-02-28T22:33:26.039Z,13.88
2023-02-28T22:35:52.440Z,13.55
2023-02-28T22:38:19.023Z,10.40
2023-02-28T22:40:45.997Z,8.25
2023-02-28T22:43:12.398Z,8.35
2023-02-28T22:45:41.055Z,7.95
2023-02-28T22:48:09.073Z,8.88
2023-02-28T22:50:35.746Z,9.55
2023-02-28T22:53:02.122Z,9.60
2023-02-28T22:55:28.538Z,9.65
2023-02-28T22:57:54.875Z,11.57
2023-02-28T23:00:21.641Z,18.17
2023-02-28T23:02:47.987Z,12.73
2023-02-28T23:05:14.808Z,10.13
2023-02-28T23:07:41.958Z,9.85
2023-02-28T23:10:11.691Z,10.32
2023-02-28T23:12:38.856Z,11.73
2023-02-28T23:15:05.680Z,12.48
2023-02-28T23:17:32.246Z,13.10
2023-02-28T23:19:58.559Z,12.55
2023-02-28T23:22:24.877Z,12.90
2023-02-28T23:24:51.178Z,11.13
2023-02-28T23:27:17.497Z,11.40
2023-02-28T23:29:43.808Z,10.82
2023-02-28T23:32:10.246Z,12.05
2023-02-28T23:34:36.639Z,12.38
2023-02-28T23:37:03.083Z,10.45
2023-02-28T23:39:30.508Z,12.13
2023-02-28T23:41:56.935Z,11.38
2023-02-28T23:44:23.412Z,11.07
2023-02-28T23:46:51.774Z,12.40
2023-02-28T23:49:19.353Z,11.90
2023-02-28T23:51:46.386Z,11.50
2023-02-28T23:54:12.715Z,11.98
2023-02-28T23:56:39.110Z,12.05
2023-02-28T23:59:05.428Z,11.90
